sensor_id;sensor_type;location;lat;lon;timestamp;temperature;humidity
82836;DHT22;72587;50.746;8.246;2024-01-11T09:57:42;0.10;99.90
82836;DHT22;72587;50.746;8.246;2024-01-11T10:00:09;5.80;99.90
82836;DHT22;72587;50.746;8.246;2024-01-11T10:02:38;5.50;99.90
82836;DHT22;72587;50.746;8.246;2024-01-11T10:05:05;5.00;99.90
82836;DHT22;72587;50.746;8.246;2024-01-11T10:07:31;4.70;99.90
82836;DHT22;72587;50.746;8.246;2024-01-11T10:09:58;4.40;99.90
82836;DHT22;72587;50.746;8.246;2024-01-11T10:12:24;4.50;99.90
82836;DHT22;72587;50.746;8.246;2024-01-11T10:14:51;4.40;99.90
82836;DHT22;72587;50.746;8.246;2024-01-11T10:17:17;3.80;99.90
82836;DHT22;72587;50.746;8.246;2024-01-11T10:19:43;3.00;99.90
82836;DHT22;72587;50.746;8.246;2024-01-11T10:22:09;2.50;99.90
82836;DHT22;72587;50.746;8.246;2024-01-11T10:24:39;1.80;99.90
82836;DHT22;72587;50.746;8.246;2024-01-11T10:27:08;1.60;99.90
82836;DHT22;72587;50.746;8.246;2024-01-11T10:29:35;1.80;99.90
82836;DHT22;72587;50.746;8.246;2024-01-11T10:32:03;1.60;99.90
82836;DHT22;72587;50.746;8.246;2024-01-11T10:34:29;1.20;99.90
82836;DHT22;72587;50.746;8.246;2024-01-11T10:36:55;1.10;99.90
82836;DHT22;72587;50.746;8.246;2024-01-11T10:39:25;0.90;99.90
82836;DHT22;72587;50.746;8.246;2024-01-11T10:41:52;0.80;99.90
82836;DHT22;72587;50.746;8.246;2024-01-11T10:44:22;1.00;99.90
82836;DHT22;72587;50.746;8.246;2024-01-11T10:46:55;0.80;99.90
82836;DHT22;72587;50.746;8.246;2024-01-11T10:49:23;0.60;99.90
82836;DHT22;72587;50.746;8.246;2024-01-11T10:52:01;0.60;99.90
82836;DHT22;72587;50.746;8.246;2024-01-11T10:54:28;0.50;99.90
82836;DHT22;72587;50.746;8.246;2024-01-11T10:56:55;0.60;99.90
82836;DHT22;72587;50.746;8.246;2024-01-11T10:59:22;0.90;99.90
82836;DHT22;72587;50.746;8.246;2024-01-11T11:01:53;0.70;99.90
82836;DHT22;72587;50.746;8.246;2024-01-11T11:04:22;0.50;99.90
82836;DHT22;72587;50.746;8.246;2024-01-11T11:06:55;0.50;99.90
82836;DHT22;72587;50.746;8.246;2024-01-11T11:09:25;0.60;99.90
82836;DHT22;72587;50.746;8.246;2024-01-11T11:11:54;0.70;99.90
82836;DHT22;72587;50.746;8.246;2024-01-11T11:14:22;0.70;99.90
82836;DHT22;72587;50.746;8.246;2024-01-11T11:16:48;0.70;99.90
82836;DHT22;72587;50.746;8.246;2024-01-11T11:39:00;0.70;99.90
82836;DHT22;72587;50.746;8.246;2024-01-11T11:41:27;2.80;99.90
82836;DHT22;72587;50.746;8.246;2024-01-11T11:43:52;3.00;99.90
82836;DHT22;72587;50.746;8.246;2024-01-11T11:46:19;3.20;99.90
82836;DHT22;72587;50.746;8.246;2024-01-11T11:48:49;3.50;99.90
82836;DHT22;72587;50.746;8.246;2024-01-11T11:51:17;3.80;99.90
82836;DHT22;72587;50.746;8.246;2024-01-11T11:53:45;4.00;99.90
82836;DHT22;72587;50.746;8.246;2024-01-11T11:56:11;4.50;99.90
82836;DHT22;72587;50.746;8.246;2024-01-11T11:58:38;5.00;99.90
82836;DHT22;72587;50.746;8.246;2024-01-11T12:01:06;5.40;99.90
82836;DHT22;72587;50.746;8.246;2024-01-11T12:03:33;6.20;99.90
82836;DHT22;72587;50.746;8.246;2024-01-11T12:06:04;7.10;99.90
82836;DHT22;72587;50.746;8.246;2024-01-11T12:08:30;7.70;99.90
82836;DHT22;72587;50.746;8.246;2024-01-11T12:10:56;8.40;99.90
82836;DHT22;72587;50.746;8.246;2024-01-11T12:13:22;8.80;99.90
82836;DHT22;72587;50.746;8.246;2024-01-11T12:15:47;8.50;99.90
82836;DHT22;72587;50.746;8.246;2024-01-11T12:18:13;8.00;99.90
82836;DHT22;72587;50.746;8.246;2024-01-11T12:20:39;8.10;99.90
82836;DHT22;72587;50.746;8.246;2024-01-11T12:23:05;7.70;99.90
82836;DHT22;72587;50.746;8.246;2024-01-11T12:25:31;7.30;99.90
82836;DHT22;72587;50.746;8.246;2024-01-11T12:27:57;7.20;99.90
82836;DHT22;72587;50.746;8.246;2024-01-11T12:30:24;7.30;99.90
82836;DHT22;72587;50.746;8.246;2024-01-11T12:32:59;7.30;99.90
82836;DHT22;72587;50.746;8.246;2024-01-11T12:35:27;7.20;99.90
82836;DHT22;72587;50.746;8.246;2024-01-11T12:37:59;6.90;99.90
82836;DHT22;72587;50.746;8.246;2024-01-11T12:40:26;6.90;99.90
82836;DHT22;72587;50.746;8.246;2024-01-11T12:42:53;6.70;99.90
82836;DHT22;72587;50.746;8.246;2024-01-11T12:45:19;6.60;99.90
82836;DHT22;72587;50.746;8.246;2024-01-11T12:47:45;6.40;99.90
82836;DHT22;72587;50.746;8.246;2024-01-11T12:50:11;6.30;99.90
82836;DHT22;72587;50.746;8.246;2024-01-11T12:52:40;6.50;99.90
82836;DHT22;72587;50.746;8.246;2024-01-11T12:55:08;6.70;99.90
82836;DHT22;72587;50.746;8.246;2024-01-11T12:57:34;6.90;99.90
82836;DHT22;72587;50.746;8.246;2024-01-11T13:00:10;6.70;99.90
82836;DHT22;72587;50.746;8.246;2024-01-11T13:02:36;6.60;99.90
82836;DHT22;72587;50.746;8.246;2024-01-11T13:05:02;6.70;99.90
82836;DHT22;72587;50.746;8.246;2024-01-11T13:07:28;6.80;99.90
82836;DHT22;72587;50.746;8.246;2024-01-11T13:09:53;6.90;99.90
82836;DHT22;72587;50.746;8.246;2024-01-11T13:12:19;7.00;99.90
82836;DHT22;72587;50.746;8.246;2024-01-11T13:14:46;7.10;99.90
82836;DHT22;72587;50.746;8.246;2024-01-11T13:17:12;7.10;99.90
82836;DHT22;72587;50.746;8.246;2024-01-11T13:19:38;7.10;99.90
82836;DHT22;72587;50.746;8.246;2024-01-11T13:22:04;7.10;99.90
82836;DHT22;72587;50.746;8.246;2024-01-11T13:24:30;7.20;99.90
82836;DHT22;72587;50.746;8.246;2024-01-11T13:26:56;7.10;99.90
82836;DHT22;72587;50.746;8.246;2024-01-11T13:29:21;7.10;99.90
82836;DHT22;72587;50.746;8.246;2024-01-11T13:31:47;7.10;99.90
82836;DHT22;72587;50.746;8.246;2024-01-11T13:34:13;7.20;99.90
82836;DHT22;72587;50.746;8.246;2024-01-11T13:36:38;7.30;99.90
82836;DHT22;72587;50.746;8.246;2024-01-11T13:39:04;7.40;99.90
82836;DHT22;72587;50.746;8.246;2024-01-11T13:41:33;7.50;99.90
82836;DHT22;72587;50.746;8.246;2024-01-11T13:43:58;7.50;99.90
82836;DHT22;72587;50.746;8.246;2024-01-11T13:46:24;7.50;99.90
82836;DHT22;72587;50.746;8.246;2024-01-11T13:48:50;7.40;99.90
82836;DHT22;72587;50.746;8.246;2024-01-11T13:51:15;7.40;99.90
82836;DHT22;72587;50.746;8.246;2024-01-11T13:53:41;7.40;99.90
82836;DHT22;72587;50.746;8.246;2024-01-11T13:56:07;7.40;99.90
82836;DHT22;72587;50.746;8.246;2024-01-11T13:58:32;7.50;99.90
82836;DHT22;72587;50.746;8.246;2024-01-11T14:00:59;7.50;99.90
82836;DHT22;72587;50.746;8.246;2024-01-11T14:03:24;7.50;99.90
82836;DHT22;72587;50.746;8.246;2024-01-11T14:05:50;7.40;99.90
82836;DHT22;72587;50.746;8.246;2024-01-11T14:08:15;7.30;99.90
82836;DHT22;72587;50.746;8.246;2024-01-11T14:10:41;7.40;99.90
82836;DHT22;72587;50.746;8.246;2024-01-11T14:13:07;7.50;99.90
82836;DHT22;72587;50.746;8.246;2024-01-11T14:15:32;7.50;99.90
82836;DHT22;72587;50.746;8.246;2024-01-11T14:17:58;7.40;99.90
82836;DHT22;72587;50.746;8.246;2024-01-11T14:20:23;7.20;99.90
82836;DHT22;72587;50.746;8.246;2024-01-11T14:22:49;7.20;99.90
82836;DHT22;72587;50.746;8.246;2024-01-11T14:25:16;7.10;99.90
82836;DHT22;72587;50.746;8.246;2024-01-11T14:27:42;7.10;99.90
82836;DHT22;72587;50.746;8.246;2024-01-11T14:30:08;7.20;99.90
82836;DHT22;72587;50.746;8.246;2024-01-11T14:32:34;7.10;99.90
82836;DHT22;72587;50.746;8.246;2024-01-11T14:35:00;7.00;99.90
82836;DHT22;72587;50.746;8.246;2024-01-11T14:37:30;6.90;99.90
82836;DHT22;72587;50.746;8.246;2024-01-11T14:39:56;6.60;99.90
82836;DHT22;72587;50.746;8.246;2024-01-11T14:42:23;6.30;99.90
82836;DHT22;72587;50.746;8.246;2024-01-11T14:44:49;6.20;99.90
82836;DHT22;72587;50.746;8.246;2024-01-11T14:47:14;5.90;99.90
82836;DHT22;72587;50.746;8.246;2024-01-11T14:49:41;5.70;99.90
82836;DHT22;72587;50.746;8.246;2024-01-11T14:52:06;5.50;99.90
82836;DHT22;72587;50.746;8.246;2024-01-11T14:54:32;5.50;99.90
82836;DHT22;72587;50.746;8.246;2024-01-11T14:56:58;5.40;99.90
82836;DHT22;72587;50.746;8.246;2024-01-11T14:59:23;5.20;99.90
82836;DHT22;72587;50.746;8.246;2024-01-11T15:01:49;5.10;99.90
82836;DHT22;72587;50.746;8.246;2024-01-11T15:04:15;4.80;99.90
82836;DHT22;72587;50.746;8.246;2024-01-11T15:06:40;4.60;99.90
82836;DHT22;72587;50.746;8.246;2024-01-11T15:09:06;4.40;99.90
82836;DHT22;72587;50.746;8.246;2024-01-11T15:11:35;4.30;99.90
82836;DHT22;72587;50.746;8.246;2024-01-11T15:14:01;4.20;99.90
82836;DHT22;72587;50.746;8.246;2024-01-11T15:16:29;4.10;99.90
82836;DHT22;72587;50.746;8.246;2024-01-11T15:18:54;3.80;99.90
82836;DHT22;72587;50.746;8.246;2024-01-11T15:21:20;3.60;99.90
82836;DHT22;72587;50.746;8.246;2024-01-11T15:23:45;3.50;99.90
82836;DHT22;72587;50.746;8.246;2024-01-11T15:26:11;3.40;99.90
82836;DHT22;72587;50.746;8.246;2024-01-11T15:28:37;3.20;99.90
82836;DHT22;72587;50.746;8.246;2024-01-11T15:31:03;3.10;99.90
82836;DHT22;72587;50.746;8.246;2024-01-11T15:33:29;2.80;99.90
82836;DHT22;72587;50.746;8.246;2024-01-11T15:35:55;2.60;99.90
82836;DHT22;72587;50.746;8.246;2024-01-11T15:38:21;2.40;99.90
82836;DHT22;72587;50.746;8.246;2024-01-11T15:40:46;2.30;99.90
82836;DHT22;72587;50.746;8.246;2024-01-11T15:43:12;2.20;99.90
82836;DHT22;72587;50.746;8.246;2024-01-11T15:45:38;2.10;99.90
82836;DHT22;72587;50.746;8.246;2024-01-11T15:48:04;1.80;99.90
82836;DHT22;72587;50.746;8.246;2024-01-11T15:50:30;1.70;99.90
82836;DHT22;72587;50.746;8.246;2024-01-11T15:52:56;1.50;99.90
82836;DHT22;72587;50.746;8.246;2024-01-11T15:55:21;1.40;99.90
82836;DHT22;72587;50.746;8.246;2024-01-11T15:57:47;1.30;99.90
82836;DHT22;72587;50.746;8.246;2024-01-11T16:00:13;1.20;99.90
82836;DHT22;72587;50.746;8.246;2024-01-11T16:02:39;1.10;99.90
82836;DHT22;72587;50.746;8.246;2024-01-11T16:05:07;1.20;99.90
